createdAt,value
2023-04-06T00:00:02.816Z,61
2023-04-06T00:20:02.464Z,62
2023-04-06T00:40:02.714Z,62
2023-04-06T01:00:03.582Z,63
2023-04-06T01:20:03.137Z,63
2023-04-06T01:40:02.495Z,64
2023-04-06T02:00:02.884Z,64
2023-04-06T02:20:02.510Z,64
2023-04-06T02:40:03.078Z,65
2023-04-06T03:00:03.019Z,65
2023-04-06T03:20:02.587Z,65
2023-04-06T03:40:02.965Z,65
2023-04-06T04:00:02.374Z,65
2023-04-06T04:20:03.891Z,65
2023-04-06T04:40:02.161Z,66
2023-04-06T05:00:02.571Z,66
2023-04-06T05:20:02.627Z,66
2023-04-06T05:40:02.881Z,66
2023-04-06T06:00:02.353Z,67
2023-04-06T06:20:03.000Z,68
2023-04-06T06:40:02.392Z,68
2023-04-06T07:00:04.105Z,65
2023-04-06T07:20:02.911Z,60
2023-04-06T07:40:02.317Z,56
2023-04-06T08:00:02.951Z,51
2023-04-06T08:20:02.697Z,45
2023-04-06T08:40:03.755Z,42
2023-04-06T09:00:03.214Z,39
2023-04-06T09:20:02.966Z,37
2023-04-06T09:40:02.394Z,35
2023-04-06T10:00:02.786Z,37
2023-04-06T10:20:03.173Z,36
2023-04-06T10:40:02.819Z,37
2023-04-06T11:00:03.407Z,39
2023-04-06T11:20:03.557Z,39
2023-04-06T11:40:02.909Z,39
2023-04-06T12:00:02.440Z,37
2023-04-06T12:20:22.325Z,35
2023-04-06T12:40:02.683Z,33
2023-04-06T13:00:03.999Z,33
2023-04-06T13:20:03.109Z,34
2023-04-06T13:40:02.818Z,35
2023-04-06T14:00:08.153Z,35
2023-04-06T14:20:03.140Z,36
2023-04-06T14:40:02.810Z,35
2023-04-06T15:00:03.294Z,36
2023-04-06T15:20:03.488Z,37
2023-04-06T15:40:03.052Z,36
2023-04-06T16:00:03.109Z,36
2023-04-06T16:20:03.404Z,36
2023-04-06T16:40:03.917Z,37
2023-04-06T17:00:03.984Z,37
2023-04-06T17:20:03.040Z,38
2023-04-06T17:40:02.407Z,40
2023-04-06T18:00:03.050Z,41
2023-04-06T18:20:03.039Z,43
2023-04-06T18:40:02.680Z,44
2023-04-06T19:00:03.715Z,46
2023-04-06T19:20:02.827Z,48
2023-04-06T19:40:02.416Z,49
2023-04-06T20:00:03.024Z,50
2023-04-06T20:20:03.081Z,51
2023-04-06T20:40:02.643Z,52
2023-04-06T21:00:03.721Z,53
2023-04-06T21:20:03.096Z,54
2023-04-06T21:40:03.123Z,56
2023-04-06T22:00:02.723Z,56
2023-04-06T22:20:03.298Z,56
2023-04-06T22:40:03.468Z,57
2023-04-06T23:00:03.475Z,58
2023-04-06T23:20:03.235Z,58
2023-04-06T23:40:02.509Z,58
